Anglesea, New Jersey
Current Conditions -  °F | °C
As of 1:55 AM on Sunday 23 Nov 2014 (Local Time) from KWWD Reporting Station
Overcast Overcast  
Wind Chill: 38°   Ceiling: 12000
Heat Index: 45°   Visibility: 10mi
Dew Point: 25°   Wind: 14mph
Humidity: 46%   Direction: 220°SW
Pressure: 30.25"   Gusts: NA
Location:  38.9808°N, 74.8281°W
Report Text: KWWD 230655Z AUTO 22012KT 10SM OVC120 07/M04 A3025 RMK AO1
Loading
Personal Weather Stations






























Interactive Weather Map New forecast layout! Learn more

10-Day Weather Forecast

Advertisements
Track Severe Weather on mobile